Time;durP1;ratioP1;P1;durP2;ratioP2;P2;SDS_P1;SDS_P2;PMS_P1;PMS_P2;Temp;Humidity;BMP_temperature;BMP_pressure;BME280_temperature;BME280_humidity;BME280_pressure;Samples;Min_cycle;Max_cycle;Signal;HPM_P1;HPM_P2
2022/03/27 00:01:14;;;;;;;20.93;11.60;;;8.90;99.90;;;;;;5093515;28;20604;-69
2022/03/27 00:03:42;;;;;;;19.43;11.90;;;8.90;99.90;;;;;;5093768;28;20216;-69
2022/03/27 00:06:09;;;;;;;22.70;13.03;;;8.90;99.90;;;;;;5094297;28;20388;-69
2022/03/27 00:08:36;;;;;;;22.33;11.93;;;8.80;99.90;;;;;;5093151;28;20202;-70
2022/03/27 00:13:48;;;;;;;22.30;11.77;;;8.80;99.90;;;;;;5093974;28;20209;-69
2022/03/27 00:16:15;;;;;;;17.87;10.33;;;8.90;99.90;;;;;;5093584;28;20194;-69
2022/03/27 00:18:43;;;;;;;18.03;10.20;;;8.90;99.90;;;;;;5093425;28;20568;-69
2022/03/27 00:21:11;;;;;;;18.03;10.10;;;8.90;38.00;;;;;;5093125;28;20655;-69
2022/03/27 00:23:38;;;;;;;20.77;11.47;;;8.80;1.00;;;;;;5094088;28;20189;-69
2022/03/27 00:26:05;;;;;;;22.43;12.40;;;8.70;19.60;;;;;;5093312;28;20282;-69
2022/03/27 00:28:32;;;;;;;21.83;12.50;;;8.70;8.90;;;;;;5092947;28;20220;-69
2022/03/27 00:31:00;;;;;;;22.87;12.00;;;8.70;1.00;;;;;;5092862;28;20208;-69
2022/03/27 00:33:27;;;;;;;23.50;12.27;;;8.80;1.00;;;;;;5093628;28;20212;-69
2022/03/27 00:35:56;;;;;;;20.73;12.03;;;8.80;1.00;;;;;;5093396;28;20209;-69
2022/03/27 00:38:23;;;;;;;24.60;12.80;;;8.80;1.00;;;;;;5093268;28;20204;-69
2022/03/27 00:40:51;;;;;;;30.63;15.07;;;8.80;1.00;;;;;;5092096;28;20578;-69
2022/03/27 00:43:19;;;;;;;27.93;15.83;;;8.70;1.00;;;;;;5092899;28;20335;-69
2022/03/27 00:45:46;;;;;;;29.17;15.17;;;8.80;1.00;;;;;;5092784;28;20204;-69
2022/03/27 00:48:13;;;;;;;25.13;14.17;;;8.80;1.00;;;;;;5089710;28;20201;-70
2022/03/27 00:50:40;;;;;;;25.50;14.07;;;8.80;1.00;;;;;;5090238;28;20570;-69
2022/03/27 00:53:09;;;;;;;25.40;13.20;;;8.80;1.00;;;;;;5092870;28;20202;-69
2022/03/27 00:55:36;;;;;;;27.30;13.10;;;8.80;1.00;;;;;;5087532;28;20478;-69
2022/03/27 00:58:03;;;;;;;24.00;13.27;;;8.80;1.00;;;;;;5091141;28;20198;-69
2022/03/27 01:00:48;;;;;;;23.63;12.80;;;8.80;1.00;;;;;;5092082;28;20208;-69
2022/03/27 01:03:18;;;;;;;26.83;14.00;;;8.80;1.00;;;;;;5091902;28;20230;-69
2022/03/27 01:05:46;;;;;;;25.87;14.27;;;8.80;1.00;;;;;;5092968;28;20291;-69
2022/03/27 01:08:15;;;;;;;25.93;13.63;;;8.80;1.00;;;;;;5091665;28;20242;-69
2022/03/27 01:10:42;;;;;;;24.77;13.03;;;8.80;1.00;;;;;;5093449;28;20241;-70
2022/03/27 01:13:12;;;;;;;27.77;14.70;;;8.80;1.00;;;;;;5092697;28;20194;-69
2022/03/27 01:15:42;;;;;;;25.20;13.57;;;8.80;1.00;;;;;;5092527;28;20619;-69
2022/03/27 01:18:10;;;;;;;24.73;14.10;;;8.70;1.00;;;;;;5092337;28;20556;-69
2022/03/27 01:20:41;;;;;;;24.73;12.70;;;8.80;1.00;;;;;;5092461;28;20211;-69
2022/03/27 01:23:10;;;;;;;21.07;12.23;;;8.80;1.00;;;;;;5091428;28;20698;-69
2022/03/27 01:25:37;;;;;;;20.27;12.40;;;8.70;1.00;;;;;;5092715;28;20205;-69
2022/03/27 01:28:05;;;;;;;19.70;12.43;;;8.50;1.00;;;;;;5091622;28;20564;-70
2022/03/27 01:30:32;;;;;;;19.80;12.10;;;8.50;1.00;;;;;;5092647;28;20212;-69
2022/03/27 01:32:59;;;;;;;20.23;12.70;;;8.50;1.00;;;;;;5091909;28;20194;-70
2022/03/27 01:35:26;;;;;;;20.03;12.07;;;8.60;1.00;;;;;;5092344;28;20251;-69
2022/03/27 01:37:54;;;;;;;18.73;11.20;;;8.50;1.00;;;;;;5090707;28;20194;-69
2022/03/27 01:40:21;;;;;;;18.23;11.07;;;8.60;1.00;;;;;;5091841;28;20213;-69
2022/03/27 01:42:52;;;;;;;19.43;12.10;;;8.70;1.00;;;;;;5091712;28;20221;-69
2022/03/27 01:45:19;;;;;;;18.43;11.20;;;8.80;1.00;;;;;;5091876;28;20274;-70
2022/03/27 01:47:46;;;;;;;16.33;11.57;;;8.80;1.00;;;;;;5090641;28;20201;-70
2022/03/27 01:50:13;;;;;;;16.50;11.07;;;8.70;1.00;;;;;;5091686;28;20197;-69
2022/03/27 01:52:40;;;;;;;20.27;11.83;;;8.70;1.00;;;;;;5091628;28;20192;-69
2022/03/27 01:55:10;;;;;;;18.07;11.67;;;8.70;1.00;;;;;;5091832;28;20202;-69
2022/03/27 01:57:39;;;;;;;16.03;10.53;;;8.60;1.00;;;;;;5090025;28;20212;-70
2022/03/27 02:00:09;;;;;;;19.50;11.73;;;8.50;1.00;;;;;;5091740;28;20213;-69
2022/03/27 02:02:36;;;;;;;17.10;11.23;;;8.50;1.00;;;;;;5091151;28;20683;-75
2022/03/27 02:05:04;;;;;;;18.20;11.87;;;8.50;1.00;;;;;;5091815;28;20208;-75
2022/03/27 02:07:37;;;;;;;18.67;11.60;;;8.50;1.00;;;;;;5090202;28;20198;-75
2022/03/27 02:10:04;;;;;;;19.10;11.70;;;8.50;1.00;;;;;;5092310;28;20591;-74
2022/03/27 02:12:34;;;;;;;18.80;11.23;;;8.50;1.00;;;;;;5091439;28;20189;-75
2022/03/27 02:15:01;;;;;;;20.07;12.27;;;8.40;1.00;;;;;;5092013;28;20208;-75
2022/03/27 02:17:28;;;;;;;17.80;11.40;;;8.40;1.00;;;;;;5091353;28;20209;-75
2022/03/27 02:19:55;;;;;;;18.87;11.80;;;8.30;1.00;;;;;;5091825;28;20652;-75
2022/03/27 02:22:21;;;;;;;18.47;11.57;;;8.40;1.00;;;;;;5095634;28;20221;-75
2022/03/27 02:24:48;;;;;;;19.00;11.90;;;8.40;1.00;;;;;;5096119;28;20667;-75
2022/03/27 02:27:15;;;;;;;22.47;13.23;;;8.40;1.00;;;;;;5095025;28;20239;-75
2022/03/27 02:29:43;;;;;;;20.90;12.73;;;8.20;1.00;;;;;;5094564;28;20213;-75
2022/03/27 02:32:10;;;;;;;22.37;13.07;;;8.30;1.00;;;;;;5095664;28;20534;-75
2022/03/27 02:34:37;;;;;;;22.40;12.87;;;8.30;1.00;;;;;;5095695;28;20193;-75
2022/03/27 02:37:05;;;;;;;21.30;13.33;;;8.30;1.00;;;;;;5095287;28;20292;-75
2022/03/27 02:39:31;;;;;;;23.60;13.90;;;8.20;25.30;;;;;;5095534;28;20288;-75
2022/03/27 02:41:58;;;;;;;21.63;13.67;;;8.20;96.00;;;;;;5095651;28;20205;-75
2022/03/27 02:44:26;;;;;;;21.50;13.87;;;8.40;82.10;;;;;;5094716;28;20300;-75
2022/03/27 02:46:54;;;;;;;25.43;14.23;;;8.40;26.60;;;;;;5095648;28;20193;-75
2022/03/27 02:49:27;;;;;;;25.70;14.40;;;8.30;1.00;;;;;;5094316;28;20569;-75
2022/03/27 02:51:54;;;;;;;23.60;15.00;;;8.30;23.50;;;;;;5095029;28;20288;-75
2022/03/27 02:54:21;;;;;;;28.07;16.53;;;8.40;12.90;;;;;;5094703;28;20225;-75
2022/03/27 02:56:48;;;;;;;28.17;17.17;;;8.20;1.00;;;;;;5095351;28;20277;-75
2022/03/27 02:59:16;;;;;;;30.10;16.30;;;8.20;51.80;;;;;;5094464;28;20198;-75
2022/03/27 03:01:43;;;;;;;28.20;16.67;;;8.10;99.90;;;;;;5094216;28;20240;-74
2022/03/27 03:04:13;;;;;;;27.63;16.60;;;8.10;99.60;;;;;;5095278;28;20577;-75
2022/03/27 03:06:41;;;;;;;29.17;16.90;;;8.00;99.90;;;;;;5094378;28;20275;-75
2022/03/27 03:09:08;;;;;;;32.27;17.73;;;8.10;99.90;;;;;;5094880;28;20209;-75
2022/03/27 03:11:35;;;;;;;30.37;16.97;;;8.10;99.90;;;;;;5095308;28;20193;-75
2022/03/27 03:14:03;;;;;;;27.57;16.13;;;8.10;99.90;;;;;;5094648;28;20571;-75
2022/03/27 03:16:30;;;;;;;29.40;17.33;;;8.10;99.90;;;;;;5095069;28;20679;-75
2022/03/27 03:18:57;;;;;;;27.00;16.20;;;8.20;99.90;;;;;;5094171;28;20205;-76
2022/03/27 03:21:26;;;;;;;28.97;16.37;;;8.20;99.90;;;;;;5094053;28;20201;-75
2022/03/27 03:23:53;;;;;;;29.00;16.10;;;8.30;99.90;;;;;;5094087;28;20209;-75
2022/03/27 03:26:22;;;;;;;29.07;17.10;;;8.20;29.70;;;;;;5095200;28;20205;-75
2022/03/27 03:28:49;;;;;;;30.17;16.40;;;8.20;92.10;;;;;;5094042;28;20232;-75
2022/03/27 03:31:16;;;;;;;29.83;16.43;;;8.20;84.20;;;;;;5093400;28;20205;-75
2022/03/27 03:33:43;;;;;;;29.10;15.90;;;8.30;67.60;;;;;;5094083;28;20194;-75
2022/03/27 03:36:10;;;;;;;30.40;16.70;;;8.20;52.70;;;;;;5093763;28;20729;-75
2022/03/27 03:38:39;;;;;;;29.40;16.20;;;8.20;27.20;;;;;;5092994;28;20197;-75
2022/03/27 03:41:05;;;;;;;31.43;16.93;;;8.20;78.40;;;;;;5094821;28;20205;-75
2022/03/27 03:43:32;;;;;;;21.93;12.97;;;8.20;39.70;;;;;;5093235;28;20224;-74
2022/03/27 03:45:59;;;;;;;23.17;13.47;;;8.00;41.70;;;;;;5093507;28;20196;-75
2022/03/27 03:48:26;;;;;;;21.73;12.97;;;8.00;47.40;;;;;;5093421;28;20204;-75
2022/03/27 03:50:53;;;;;;;22.90;13.40;;;7.90;67.20;;;;;;5094285;28;20197;-75
2022/03/27 03:53:20;;;;;;;24.90;14.03;;;7.80;99.90;;;;;;5093966;28;20557;-75
2022/03/27 03:55:48;;;;;;;22.77;12.20;;;7.80;95.60;;;;;;5094078;28;20679;-75
2022/03/27 03:58:15;;;;;;;25.13;13.97;;;7.80;99.90;;;;;;5093142;28;20210;-74
2022/03/27 04:00:42;;;;;;;25.83;13.67;;;7.80;99.90;;;;;;5094430;28;20205;-75
2022/03/27 04:03:09;;;;;;;27.10;14.27;;;7.80;99.90;;;;;;5093965;28;20243;-75
2022/03/27 04:05:37;;;;;;;25.27;14.20;;;7.70;99.90;;;;;;5093356;28;20204;-75
2022/03/27 04:08:04;;;;;;;27.70;15.63;;;7.70;99.90;;;;;;5092524;28;20247;-75
2022/03/27 04:10:31;;;;;;;24.07;14.97;;;7.60;99.90;;;;;;5093574;28;20285;-75
2022/03/27 04:12:59;;;;;;;26.90;14.53;;;7.60;99.90;;;;;;5093301;28;20198;-75
2022/03/27 04:15:26;;;;;;;24.97;14.33;;;7.70;99.90;;;;;;5094078;28;20559;-75
2022/03/27 04:17:53;;;;;;;24.10;13.77;;;7.70;99.90;;;;;;5092654;28;20201;-75
2022/03/27 04:20:20;;;;;;;27.83;14.97;;;7.60;99.90;;;;;;5093838;28;20301;-75
2022/03/27 04:22:47;;;;;;;29.17;14.90;;;7.60;99.90;;;;;;5093503;28;20221;-74
2022/03/27 04:25:15;;;;;;;27.60;15.00;;;7.70;99.90;;;;;;5093552;28;20233;-74
2022/03/27 04:27:42;;;;;;;25.80;14.77;;;7.60;99.90;;;;;;5091997;28;20220;-74
2022/03/27 04:30:12;;;;;;;24.60;14.17;;;7.60;99.90;;;;;;5094309;28;20579;-75
2022/03/27 04:32:40;;;;;;;27.63;14.97;;;7.60;99.90;;;;;;5093632;28;20613;-75
2022/03/27 04:35:09;;;;;;;26.73;14.17;;;7.60;99.90;;;;;;5093984;28;20551;-75
2022/03/27 04:37:40;;;;;;;29.77;16.13;;;7.60;99.90;;;;;;5091385;28;20674;-75
2022/03/27 04:40:08;;;;;;;27.17;15.53;;;7.50;99.90;;;;;;5093099;28;20278;-75
2022/03/27 04:42:34;;;;;;;24.13;14.07;;;7.60;99.90;;;;;;5092676;28;20208;-75
2022/03/27 04:45:02;;;;;;;25.33;15.30;;;7.60;99.90;;;;;;5092578;28;20201;-75
2022/03/27 04:47:30;;;;;;;29.37;15.60;;;7.60;99.90;;;;;;5093321;28;20197;-75
2022/03/27 04:49:57;;;;;;;27.77;15.00;;;7.50;99.90;;;;;;5092475;28;20205;-75
2022/03/27 04:52:24;;;;;;;26.90;14.30;;;7.50;99.90;;;;;;5092708;28;20206;-74
2022/03/27 04:54:51;;;;;;;25.57;14.27;;;7.50;99.90;;;;;;5093324;28;20201;-75
2022/03/27 04:57:18;;;;;;;23.60;14.97;;;7.50;99.90;;;;;;5092912;28;20202;-74
2022/03/27 04:59:45;;;;;;;23.67;14.03;;;7.50;99.90;;;;;;5092814;28;20220;-75
2022/03/27 05:02:12;;;;;;;27.30;14.57;;;7.50;99.90;;;;;;5095863;28;20262;-74
2022/03/27 05:04:41;;;;;;;25.83;14.07;;;7.50;99.90;;;;;;5092407;28;20228;-75
2022/03/27 05:07:08;;;;;;;26.03;15.93;;;7.50;99.90;;;;;;5093081;28;20667;-75
2022/03/27 05:09:35;;;;;;;26.47;15.10;;;7.50;99.90;;;;;;5092826;28;20388;-75
2022/03/27 05:12:02;;;;;;;26.37;14.40;;;7.50;99.90;;;;;;5092387;28;20209;-75
2022/03/27 05:14:29;;;;;;;26.87;15.93;;;7.50;99.90;;;;;;5091614;28;20535;-75
2022/03/27 05:16:56;;;;;;;26.23;14.97;;;7.50;99.90;;;;;;5081596;28;20193;-75
2022/03/27 05:19:23;;;;;;;27.97;15.90;;;7.50;99.90;;;;;;5091326;28;20316;-75
2022/03/27 05:21:51;;;;;;;27.23;15.73;;;7.50;99.90;;;;;;5091839;28;20202;-75
2022/03/27 05:24:18;;;;;;;26.63;14.83;;;7.50;99.90;;;;;;5091811;28;20218;-75
2022/03/27 05:26:45;;;;;;;29.00;16.30;;;7.50;99.90;;;;;;5092567;28;20220;-75
2022/03/27 05:29:12;;;;;;;27.77;15.90;;;7.50;99.90;;;;;;5090988;28;20193;-75
2022/03/27 05:31:39;;;;;;;27.63;16.00;;;7.50;99.90;;;;;;5091924;28;20202;-75
2022/03/27 05:34:06;;;;;;;26.63;15.50;;;7.50;99.90;;;;;;5092114;28;20204;-74
2022/03/27 05:36:33;;;;;;;28.30;15.13;;;7.50;99.90;;;;;;5071939;28;20208;-74
2022/03/27 05:39:01;;;;;;;25.23;15.57;;;7.50;99.90;;;;;;5086682;28;20220;-75
2022/03/27 05:41:28;;;;;;;26.13;15.03;;;7.60;99.90;;;;;;5090965;28;20611;-75
2022/03/27 05:43:54;;;;;;;26.47;15.37;;;7.60;99.90;;;;;;5090937;28;21261;-75
2022/03/27 05:46:21;;;;;;;28.50;16.50;;;7.60;99.90;;;;;;5087239;28;20657;-75
2022/03/27 05:48:48;;;;;;;26.90;15.13;;;7.60;99.90;;;;;;5090990;28;20201;-75
2022/03/27 05:51:15;;;;;;;28.30;16.47;;;7.60;99.90;;;;;;5091482;28;20200;-75
2022/03/27 05:53:43;;;;;;;28.53;15.73;;;7.60;99.90;;;;;;5089884;28;20260;-75
2022/03/27 05:56:11;;;;;;;28.23;16.10;;;7.60;99.90;;;;;;5091632;28;20270;-75
2022/03/27 05:58:38;;;;;;;28.50;15.40;;;7.60;99.90;;;;;;5091081;28;20652;-75
2022/03/27 06:01:05;;;;;;;26.07;15.00;;;7.60;99.90;;;;;;5091035;28;20213;-76
2022/03/27 06:03:32;;;;;;;27.97;15.20;;;7.60;99.90;;;;;;5091244;28;20217;-75
2022/03/27 06:05:59;;;;;;;26.67;16.10;;;7.70;99.90;;;;;;5091588;28;20289;-76
2022/03/27 06:08:26;;;;;;;29.50;16.60;;;7.60;99.90;;;;;;5088402;28;20212;-75
2022/03/27 06:10:53;;;;;;;28.10;15.60;;;7.60;99.90;;;;;;5091498;28;20297;-75
2022/03/27 06:13:22;;;;;;;27.60;14.70;;;7.70;99.90;;;;;;5090148;28;20292;-75
2022/03/27 06:15:50;;;;;;;28.40;15.60;;;7.70;99.90;;;;;;5091090;28;20262;-75
2022/03/27 06:18:17;;;;;;;30.30;17.03;;;7.70;99.90;;;;;;5086325;28;20288;-75
2022/03/27 06:20:44;;;;;;;32.60;16.13;;;7.70;99.90;;;;;;5090090;28;20198;-76
2022/03/27 06:23:12;;;;;;;27.27;16.13;;;7.70;99.90;;;;;;5086742;28;20193;-76
2022/03/27 06:25:39;;;;;;;27.40;15.77;;;7.70;99.90;;;;;;5087804;28;20242;-70
2022/03/27 06:28:06;;;;;;;28.03;15.57;;;7.60;99.90;;;;;;5083434;28;20198;-76
2022/03/27 06:30:35;;;;;;;28.00;16.90;;;7.80;99.90;;;;;;5087792;28;20260;-76
2022/03/27 06:33:04;;;;;;;28.90;16.17;;;7.80;99.90;;;;;;5089262;28;20229;-77
2022/03/27 06:35:31;;;;;;;27.60;16.07;;;7.90;99.90;;;;;;5089822;28;20221;-76
2022/03/27 06:37:59;;;;;;;28.00;16.00;;;7.90;99.90;;;;;;5090172;28;20205;-76
2022/03/27 06:40:26;;;;;;;29.03;15.90;;;7.80;99.90;;;;;;5090593;28;20555;-76
2022/03/27 06:42:53;;;;;;;30.07;17.23;;;7.80;99.90;;;;;;5090313;28;20212;-76
2022/03/27 06:45:22;;;;;;;29.83;16.90;;;7.90;99.90;;;;;;5089115;28;20314;-76
2022/03/27 06:47:51;;;;;;;34.00;17.50;;;7.90;99.90;;;;;;5088789;28;20208;-76
2022/03/27 06:50:22;;;;;;;30.33;17.70;;;7.90;99.90;;;;;;5085628;28;20322;-76
2022/03/27 06:52:50;;;;;;;32.13;17.13;;;8.00;99.90;;;;;;5089844;28;20214;-76
2022/03/27 06:55:17;;;;;;;27.83;16.27;;;8.10;99.90;;;;;;5090107;28;20193;-76
2022/03/27 06:57:44;;;;;;;21.60;12.30;;;8.00;99.90;;;;;;5089850;28;20559;-69
2022/03/27 07:03:03;;;;;;;22.90;12.17;;;8.00;99.90;;;;;;5086396;28;20211;-70
2022/03/27 07:05:31;;;;;;;24.00;12.63;;;8.00;99.90;;;;;;5091948;28;20278;-70
2022/03/27 07:07:58;;;;;;;22.30;12.40;;;8.00;99.90;;;;;;5093194;28;20255;-69
2022/03/27 07:10:26;;;;;;;23.87;12.97;;;8.00;99.90;;;;;;5093497;28;20717;-76
2022/03/27 07:12:54;;;;;;;23.97;12.83;;;8.00;99.90;;;;;;5093016;28;20209;-69
2022/03/27 07:15:21;;;;;;;26.23;13.50;;;8.10;99.90;;;;;;5090511;28;20224;-76
2022/03/27 07:17:49;;;;;;;24.23;13.87;;;8.20;99.90;;;;;;5092962;28;20230;-76
2022/03/27 07:20:25;;;;;;;20.93;12.03;;;8.40;99.90;;;;;;5092526;28;20258;-76
2022/03/27 07:22:53;;;;;;;26.13;13.00;;;8.30;99.90;;;;;;5093716;28;20201;-77
2022/03/27 07:25:21;;;;;;;23.83;13.87;;;8.40;99.90;;;;;;5093139;28;20312;-77
2022/03/27 07:27:49;;;;;;;27.00;14.67;;;8.50;90.90;;;;;;5093159;28;20668;-75
2022/03/27 07:30:16;;;;;;;27.93;15.80;;;8.60;88.20;;;;;;5092829;28;20209;-70
2022/03/27 07:32:44;;;;;;;25.87;14.83;;;8.60;26.40;;;;;;5092610;28;20645;-70
2022/03/27 07:35:14;;;;;;;24.70;14.90;;;8.60;62.70;;;;;;5092947;28;20201;-69
2022/03/27 07:37:44;;;;;;;24.77;14.80;;;8.50;1.00;;;;;;5092708;28;20691;-69
2022/03/27 07:40:12;;;;;;;27.20;15.03;;;8.60;1.00;;;;;;5092481;28;20579;-76
2022/03/27 07:42:41;;;;;;;25.83;14.67;;;8.60;1.00;;;;;;5090932;28;20206;-76
2022/03/27 07:45:09;;;;;;;25.70;14.27;;;8.40;1.00;;;;;;5092781;28;20221;-77
2022/03/27 07:47:37;;;;;;;23.80;13.93;;;8.50;1.00;;;;;;5092257;28;20251;-75
2022/03/27 07:50:06;;;;;;;24.30;14.23;;;8.70;1.00;;;;;;5092904;28;20645;-75
2022/03/27 07:52:33;;;;;;;22.93;13.60;;;8.80;1.00;;;;;;5091552;28;20210;-75
2022/03/27 07:55:02;;;;;;;27.30;14.30;;;8.70;1.00;;;;;;5092796;28;20198;-75
2022/03/27 07:57:29;;;;;;;25.43;14.33;;;8.60;1.00;;;;;;5092679;28;20205;-76
2022/03/27 07:59:57;;;;;;;25.53;14.17;;;8.70;1.00;;;;;;5092545;28;20197;-75
2022/03/27 08:02:24;;;;;;;25.33;14.00;;;8.60;1.00;;;;;;5091360;28;20205;-69
2022/03/27 08:04:51;;;;;;;24.73;13.53;;;8.60;1.00;;;;;;5092360;28;20299;-75
2022/03/27 08:07:19;;;;;;;24.20;13.83;;;8.70;1.00;;;;;;5091681;28;20206;-75
2022/03/27 08:09:46;;;;;;;33.17;14.73;;;8.80;1.00;;;;;;5091137;28;20247;-70
2022/03/27 08:12:14;;;;;;;21.70;12.50;;;8.80;1.00;;;;;;5091912;28;20190;-69
2022/03/27 08:14:43;;;;;;;25.10;13.97;;;8.90;1.00;;;;;;5091149;28;20296;-69
2022/03/27 08:17:10;;;;;;;28.10;13.40;;;8.90;1.00;;;;;;5092090;28;20205;-69
2022/03/27 08:19:37;;;;;;;24.27;13.43;;;8.80;1.00;;;;;;5092518;28;20823;-70
2022/03/27 08:22:05;;;;;;;25.57;14.43;;;8.90;1.00;;;;;;5093558;28;20641;-70
2022/03/27 08:24:33;;;;;;;24.47;13.23;;;8.90;1.00;;;;;;5092095;28;20751;-70
2022/03/27 08:27:00;;;;;;;25.30;14.33;;;8.90;1.00;;;;;;5093204;28;20607;-70
2022/03/27 08:29:30;;;;;;;23.60;13.67;;;8.80;1.00;;;;;;5092333;28;20202;-70
2022/03/27 08:31:59;;;;;;;28.03;15.27;;;8.80;1.00;;;;;;5091118;28;20213;-70
2022/03/27 08:34:26;;;;;;;26.27;14.13;;;8.70;1.00;;;;;;5091225;28;20205;-70
2022/03/27 08:36:53;;;;;;;26.73;14.30;;;8.70;1.00;;;;;;5092743;28;20204;-70
2022/03/27 08:39:20;;;;;;;25.43;14.93;;;8.70;1.00;;;;;;5091325;28;20206;-70
2022/03/27 08:41:49;;;;;;;27.47;15.17;;;8.80;1.00;;;;;;5092341;28;20215;-70
2022/03/27 08:44:18;;;;;;;24.60;14.20;;;9.10;1.00;;;;;;5092475;28;20247;-70
2022/03/27 08:46:48;;;;;;;24.80;13.70;;;9.00;1.00;;;;;;5091275;28;20259;-70
2022/03/27 08:49:35;;;;;;;23.60;12.97;;;8.90;1.00;;;;;;5092068;28;20205;-70
2022/03/27 08:52:10;;;;;;;28.73;15.07;;;9.20;1.00;;;;;;5087547;28;20569;-70
2022/03/27 08:54:42;;;;;;;25.90;13.70;;;9.30;1.00;;;;;;5092808;28;20205;-70
2022/03/27 08:57:24;;;;;;;24.37;13.70;;;9.20;1.00;;;;;;5093048;28;20209;-70
2022/03/27 08:59:53;;;;;;;24.43;13.57;;;9.20;1.00;;;;;;5092196;28;20710;-70
2022/03/27 09:02:23;;;;;;;25.57;14.00;;;9.30;1.00;;;;;;5092254;28;20190;-69
2022/03/27 09:04:53;;;;;;;23.40;13.67;;;9.30;1.00;;;;;;5091903;28;20225;-70
2022/03/27 09:07:20;;;;;;;24.93;14.30;;;9.40;1.00;;;;;;5092618;28;20241;-69
2022/03/27 09:09:47;;;;;;;23.97;13.63;;;9.50;1.00;;;;;;5092403;28;20217;-70
2022/03/27 09:12:15;;;;;;;23.80;13.30;;;9.60;99.90;;;;;;5092404;28;20205;-69
2022/03/27 09:14:43;;;;;;;25.80;13.97;;;9.50;99.90;;;;;;5091558;28;20193;-69
2022/03/27 09:17:10;;;;;;;27.13;15.40;;;9.50;1.00;;;;;;5091419;28;20199;-70
2022/03/27 09:19:40;;;;;;;26.87;14.43;;;9.50;1.00;;;;;;5091644;28;20201;-69
2022/03/27 09:22:15;;;;;;;24.80;14.40;;;9.60;1.00;;;;;;5091735;28;20201;-69
2022/03/27 09:24:42;;;;;;;25.70;13.50;;;9.50;99.90;;;;;;5092551;28;20307;-69
2022/03/27 09:27:09;;;;;;;27.47;14.10;;;9.70;99.90;;;;;;5092654;28;20212;-70
2022/03/27 09:29:57;;;;;;;24.03;14.67;;;9.70;1.00;;;;;;5092245;28;20679;-69
2022/03/27 09:32:28;;;;;;;27.50;14.07;;;9.70;1.00;;;;;;5081154;28;20205;-70
2022/03/27 09:35:02;;;;;;;23.70;13.17;;;9.50;55.80;;;;;;5087946;28;20565;-70
2022/03/27 09:37:30;;;;;;;23.83;13.73;;;9.70;1.00;;;;;;5088222;28;20204;-70
2022/03/27 09:39:57;;;;;;;24.23;13.87;;;9.60;1.00;;;;;;5091877;28;20247;-70
2022/03/27 09:42:24;;;;;;;24.73;13.90;;;9.70;1.00;;;;;;5092358;28;20323;-70
2022/03/27 09:45:13;;;;;;;24.87;13.80;;;9.80;1.00;;;;;;5092146;28;20217;-69
2022/03/27 09:47:41;;;;;;;24.17;13.43;;;9.80;1.00;;;;;;5091799;28;20212;-70
2022/03/27 09:50:29;;;;;;;22.20;12.63;;;10.10;99.90;;;;;;5091438;28;20204;-69
2022/03/27 09:53:20;;;;;;;21.67;12.80;;;10.20;1.00;;;;;;5091369;28;20603;-69
2022/03/27 09:55:51;;;;;;;22.27;13.47;;;10.10;99.90;;;;;;5092041;28;20200;-69
2022/03/27 09:58:33;;;;;;;21.33;12.07;;;10.30;1.00;;;;;;5090919;28;20203;-69
2022/03/27 10:01:09;;;;;;;23.93;12.93;;;10.50;99.90;;;;;;5091758;28;20201;-68
2022/03/27 10:03:36;;;;;;;23.57;12.67;;;10.50;99.90;;;;;;5091682;28;20209;-68
2022/03/27 10:06:05;;;;;;;24.93;14.13;;;10.10;1.00;;;;;;5091905;28;20224;-70
2022/03/27 10:08:32;;;;;;;24.10;12.77;;;10.20;99.90;;;;;;5091403;28;20739;-69
2022/03/27 10:10:59;;;;;;;22.73;12.57;;;10.30;98.90;;;;;;5091867;28;20205;-69
2022/03/27 10:13:29;;;;;;;22.87;12.23;;;10.60;99.90;;;;;;5091430;28;20215;-68
2022/03/27 10:15:59;;;;;;;22.07;12.17;;;10.60;1.00;;;;;;5092246;28;20588;-68
2022/03/27 10:18:27;;;;;;;22.37;12.40;;;10.90;1.00;;;;;;5089300;28;20221;-69
2022/03/27 10:21:00;;;;;;;21.43;12.20;;;11.10;99.90;;;;;;5090627;28;20202;-69
2022/03/27 10:23:31;;;;;;;23.30;12.70;;;11.00;99.90;;;;;;5089644;28;20204;-68
2022/03/27 10:26:02;;;;;;;24.03;14.30;;;11.00;99.90;;;;;;5090141;28;20217;-69
2022/03/27 10:28:30;;;;;;;23.40;12.67;;;11.30;1.00;;;;;;5090532;28;20652;-69
2022/03/27 10:30:57;;;;;;;21.73;11.73;;;11.30;1.00;;;;;;5091007;28;20567;-69
2022/03/27 10:33:26;;;;;;;22.60;12.67;;;11.40;1.00;;;;;;5088386;28;20202;-68
2022/03/27 10:35:59;;;;;;;22.00;11.87;;;11.30;1.00;;;;;;5086862;28;20351;-68
2022/03/27 10:38:43;;;;;;;19.37;11.20;;;11.50;1.00;;;;;;5088699;28;20564;-69
2022/03/27 10:41:17;;;;;;;22.37;11.43;;;11.30;1.00;;;;;;5089071;28;20198;-69
2022/03/27 10:43:51;;;;;;;21.57;12.27;;;11.40;1.00;;;;;;5091447;28;20211;-69
2022/03/27 10:46:21;;;;;;;20.70;11.50;;;11.60;1.00;;;;;;5093353;28;20318;-69
2022/03/27 10:48:50;;;;;;;21.17;11.67;;;11.50;1.00;;;;;;5091599;28;20207;-69
2022/03/27 10:51:42;;;;;;;20.30;11.27;;;11.50;99.90;;;;;;5090675;28;20209;-70
2022/03/27 10:54:11;;;;;;;20.43;11.03;;;11.80;99.90;;;;;;5071033;28;20198;-69
2022/03/27 10:56:43;;;;;;;20.40;11.77;;;11.90;53.50;;;;;;5091924;28;20198;-73
2022/03/27 10:59:15;;;;;;;20.40;11.10;;;12.00;1.00;;;;;;5088085;28;20227;-68
2022/03/27 11:01:45;;;;;;;22.97;12.20;;;12.00;1.00;;;;;;5091578;28;20209;-68
2022/03/27 11:04:13;;;;;;;21.37;11.63;;;11.90;1.00;;;;;;5091488;28;20204;-68
2022/03/27 11:06:42;;;;;;;20.87;11.53;;;11.80;1.00;;;;;;5092154;28;20225;-69
2022/03/27 11:09:13;;;;;;;22.77;12.40;;;12.20;1.00;;;;;;5092037;28;20205;-68
2022/03/27 11:12:05;;;;;;;22.87;12.47;;;12.20;1.00;;;;;;5091512;28;20198;-69
2022/03/27 11:14:57;;;;;;;19.57;11.37;;;12.40;1.00;;;;;;5091566;28;20660;-70
2022/03/27 11:17:52;;;;;;;19.53;11.00;;;12.50;99.90;;;;;;5076834;28;20205;-69
2022/03/27 11:20:47;;;;;;;20.97;12.10;;;12.40;99.90;;;;;;5072970;28;20213;-69
2022/03/27 11:23:28;;;;;;;20.40;10.93;;;12.80;1.00;;;;;;5088789;28;20205;-69
2022/03/27 11:25:57;;;;;;;20.07;11.20;;;12.90;1.00;;;;;;5088494;28;20256;-70
2022/03/27 11:28:25;;;;;;;18.57;10.90;;;12.30;99.90;;;;;;5091527;28;20206;-69
2022/03/27 11:31:20;;;;;;;19.70;10.43;;;13.00;1.00;;;;;;5091785;28;20205;-69
2022/03/27 11:34:16;;;;;;;19.40;10.73;;;12.80;1.00;;;;;;5091461;28;20288;-73
2022/03/27 11:36:44;;;;;;;20.77;11.23;;;12.20;99.90;;;;;;5091701;28;20198;-73
2022/03/27 11:39:13;;;;;;;18.73;11.17;;;12.30;99.90;;;;;;5091417;28;20212;-73
2022/03/27 11:41:43;;;;;;;18.10;10.97;;;12.50;1.00;;;;;;5091112;28;20206;-73
2022/03/27 11:45:06;;;;;;;17.03;10.30;;;12.80;1.00;;;;;;5091685;28;20223;-74
2022/03/27 11:47:20;;;;;;;19.17;11.03;;;12.90;1.00;;;;;;5093287;28;20290;-74
2022/03/27 11:49:49;;;;;;;18.90;10.80;;;13.30;99.90;;;;;;5093382;28;20279;-74
2022/03/27 11:52:17;;;;;;;19.33;11.50;;;13.10;1.00;;;;;;5092530;28;20210;-74
2022/03/27 11:54:44;;;;;;;18.47;11.00;;;13.40;1.00;;;;;;5093365;28;20212;-74
2022/03/27 11:57:13;;;;;;;19.53;11.07;;;13.80;1.00;;;;;;5093669;28;20201;-74
2022/03/27 11:59:47;;;;;;;17.40;9.87;;;13.60;1.00;;;;;;5093410;28;20267;-74
2022/03/27 12:02:15;;;;;;;18.97;11.17;;;13.70;91.30;;;;;;5093641;28;20543;-74
2022/03/27 12:04:54;;;;;;;17.37;10.53;;;14.00;1.00;;;;;;5091098;28;20208;-74
2022/03/27 12:07:22;;;;;;;20.57;11.23;;;14.50;1.00;;;;;;5089641;28;20205;-74
2022/03/27 12:09:57;;;;;;;22.40;10.27;;;14.30;99.90;;;;;;5091623;28;20197;-70
2022/03/27 12:12:36;;;;;;;16.33;9.47;;;14.20;1.00;;;;;;5091586;28;20254;-73
2022/03/27 12:15:08;;;;;;;18.43;10.30;;;14.00;1.00;;;;;;5091820;28;20185;-74
2022/03/27 12:17:45;;;;;;;20.50;11.03;;;14.30;1.00;;;;;;5091253;28;20205;-74
2022/03/27 12:20:14;;;;;;;16.90;9.43;;;14.00;1.00;;;;;;5091462;28;20251;-74
2022/03/27 12:22:44;;;;;;;17.97;10.07;;;13.90;92.20;;;;;;5092193;28;20540;-74
2022/03/27 12:25:20;;;;;;;18.03;9.77;;;13.50;1.00;;;;;;5092582;28;20690;-74
2022/03/27 12:30:44;;;;;;;16.73;9.13;;;13.60;1.00;;;;;;5076226;28;20671;-70
2022/03/27 12:33:11;;;;;;;17.07;9.23;;;13.70;1.00;;;;;;5091352;28;20197;-70
2022/03/27 12:35:39;;;;;;;17.23;10.20;;;14.20;1.00;;;;;;5092872;28;20270;-69
2022/03/27 12:38:06;;;;;;;16.90;10.23;;;13.90;1.00;;;;;;5083418;28;20206;-69
2022/03/27 12:40:43;;;;;;;19.90;11.20;;;13.90;1.00;;;;;;5091065;28;20201;-70
2022/03/27 12:43:16;;;;;;;16.73;9.80;;;13.90;1.00;;;;;;5091933;28;20202;-69
2022/03/27 12:45:44;;;;;;;17.43;10.10;;;14.50;1.00;;;;;;5091171;28;20736;-70
2022/03/27 12:48:18;;;;;;;19.77;10.93;;;13.90;1.00;;;;;;5092638;28;20714;-69
2022/03/27 12:50:47;;;;;;;19.27;10.67;;;13.70;1.00;;;;;;5091404;28;20263;-74
2022/03/27 12:53:24;;;;;;;18.73;10.17;;;13.70;99.90;;;;;;5091770;28;20660;-69
2022/03/27 12:55:53;;;;;;;20.17;10.47;;;13.50;1.30;;;;;;5090699;28;20201;-73
2022/03/27 12:58:34;;;;;;;19.63;10.37;;;13.50;99.90;;;;;;5091033;28;20202;-69
2022/03/27 13:01:09;;;;;;;19.20;9.87;;;13.90;99.90;;;;;;5092499;28;20201;-75